Time,TemperatureF,DewpointF,PressureIn,WindDirection,WindDirectionDegrees,WindSpeedMPH,WindSpeedGustMPH,Humidity,HourlyPrecipIn,Conditions,Clouds,dailyrainin,SoftwareType,DateUTC
2013-05-31 00:00:00,72.3,67.2,29.99,WNW,301,0.0,0.0,84,0.00,,,0.01,Wunderground v.1.15,2013-05-31 04:00:00,
2013-05-31 00:05:00,72.4,67.3,29.99,WNW,301,0.0,0.0,84,0.00,,,0.00,Wunderground v.1.15,2013-05-31 04:05:00,
2013-05-31 00:10:00,72.5,67.4,29.99,WNW,301,0.0,0.0,84,0.00,,,0.00,Wunderground v.1.15,2013-05-31 04:10:00,
2013-05-31 00:15:00,72.4,67.3,29.99,WNW,301,0.0,0.0,84,0.00,,,0.00,Wunderground v.1.15,2013-05-31 04:15:00,
2013-05-31 00:20:00,72.4,67.3,29.99,WNW,301,0.0,0.0,84,0.00,,,0.00,Wunderground v.1.15,2013-05-31 04:20:00,
2013-05-31 00:25:00,72.2,67.1,29.99,WNW,301,0.0,0.0,84,0.00,,,0.00,Wunderground v.1.15,2013-05-31 04:25:00,
2013-05-31 00:35:00,71.6,67.2,29.99,WNW,301,0.0,0.0,86,0.00,,,0.00,Wunderground v.1.15,2013-05-31 04:35:00,
2013-05-31 00:45:00,71.2,66.8,29.99,WNW,301,0.0,0.0,86,0.00,,,0.00,Wunderground v.1.15,2013-05-31 04:45:00,
2013-05-31 00:50:00,71.1,67.0,29.99,WNW,301,0.0,0.0,87,0.00,,,0.00,Wunderground v.1.15,2013-05-31 04:50:00,
2013-05-31 01:00:00,70.9,66.8,30.00,WNW,301,0.0,0.0,87,0.00,,,0.00,Wunderground v.1.15,2013-05-31 05:00:00,
2013-05-31 01:05:00,70.8,66.7,30.00,WNW,301,0.0,0.0,87,0.00,,,0.00,Wunderground v.1.15,2013-05-31 05:05:00,
2013-05-31 01:10:00,70.6,66.9,30.00,WNW,301,0.0,0.0,88,0.00,,,0.00,Wunderground v.1.15,2013-05-31 05:10:00,
2013-05-31 01:20:00,70.4,66.7,30.00,WNW,301,0.0,0.0,88,0.00,,,0.00,Wunderground v.1.15,2013-05-31 05:20:00,
2013-05-31 01:30:00,70.1,66.7,30.00,WNW,301,0.0,0.0,89,0.00,,,0.00,Wunderground v.1.15,2013-05-31 05:30:00,
2013-05-31 01:35:00,70.0,66.6,30.00,WNW,301,0.0,0.0,89,0.00,,,0.00,Wunderground v.1.15,2013-05-31 05:35:00,
2013-05-31 01:40:00,69.9,66.5,30.00,WNW,301,0.0,0.0,89,0.00,,,0.00,Wunderground v.1.15,2013-05-31 05:40:00,
2013-05-31 01:45:00,70.0,66.6,30.00,WNW,301,0.0,0.0,89,0.00,,,0.00,Wunderground v.1.15,2013-05-31 05:45:00,
2013-05-31 01:55:00,69.7,66.3,30.00,WNW,301,0.0,0.0,89,0.00,,,0.00,Wunderground v.1.15,2013-05-31 05:55:00,
2013-05-31 02:05:00,69.6,66.5,30.00,WNW,301,0.0,0.0,90,0.00,,,0.00,Wunderground v.1.15,2013-05-31 06:05:00,
2013-05-31 02:10:00,69.5,66.1,30.00,WNW,301,0.0,0.0,89,0.00,,,0.00,Wunderground v.1.15,2013-05-31 06:10:00,
2013-05-31 02:15:00,69.5,66.4,30.00,WNW,301,0.0,0.0,90,0.00,,,0.00,Wunderground v.1.15,2013-05-31 06:15:00,
2013-05-31 02:25:00,69.3,66.2,30.00,WNW,301,0.0,0.0,90,0.00,,,0.00,Wunderground v.1.15,2013-05-31 06:25:00,
2013-05-31 02:35:00,69.2,66.1,30.00,WNW,301,0.0,0.0,90,0.00,,,0.00,Wunderground v.1.15,2013-05-31 06:35:00,
2013-05-31 02:45:00,68.9,65.8,30.00,WNW,301,0.0,0.0,90,0.00,,,0.00,Wunderground v.1.15,2013-05-31 06:45:00,
2013-05-31 02:55:00,68.7,66.0,30.00,WNW,301,0.0,0.0,91,0.00,,,0.00,Wunderground v.1.15,2013-05-31 06:55:00,
2013-05-31 03:05:00,68.6,65.9,30.00,WNW,301,0.0,0.0,91,0.00,,,0.00,Wunderground v.1.15,2013-05-31 07:05:00,
2013-05-31 03:15:00,68.5,65.8,30.00,WNW,301,0.0,0.0,91,0.00,,,0.00,Wunderground v.1.15,2013-05-31 07:15:00,
2013-05-31 03:20:00,68.4,65.7,30.00,WNW,301,0.0,0.0,91,0.00,,,0.00,Wunderground v.1.15,2013-05-31 07:20:00,
2013-05-31 03:30:00,68.2,65.5,30.00,WNW,301,0.0,0.0,91,0.00,,,0.00,Wunderground v.1.15,2013-05-31 07:30:00,
2013-05-31 03:35:00,68.0,65.3,30.00,WNW,301,0.0,0.0,91,0.00,,,0.00,Wunderground v.1.15,2013-05-31 07:35:00,
2013-05-31 03:45:00,67.9,65.5,30.00,WNW,301,0.0,0.0,92,0.00,,,0.00,Wunderground v.1.15,2013-05-31 07:45:00,
2013-05-31 03:50:00,67.7,65.3,30.00,WNW,301,0.0,0.0,92,0.00,,,0.00,Wunderground v.1.15,2013-05-31 07:50:00,
2013-05-31 04:00:00,67.5,65.1,30.00,WNW,301,0.0,0.0,92,0.00,,,0.00,Wunderground v.1.15,2013-05-31 08:00:00,
2013-05-31 04:05:00,67.6,65.2,30.00,WNW,301,0.0,0.0,92,0.00,,,0.00,Wunderground v.1.15,2013-05-31 08:05:00,
2013-05-31 04:15:00,67.6,64.9,30.00,WNW,301,0.0,0.0,91,0.00,,,0.00,Wunderground v.1.15,2013-05-31 08:15:00,
2013-05-31 04:20:00,67.6,64.9,30.00,WNW,301,0.0,0.0,91,0.00,,,0.00,Wunderground v.1.15,2013-05-31 08:20:00,
2013-05-31 04:30:00,67.5,64.8,30.01,WNW,301,0.0,0.0,91,0.00,,,0.00,Wunderground v.1.15,2013-05-31 08:30:00,
2013-05-31 04:40:00,67.2,64.5,30.01,WNW,301,0.0,0.0,91,0.00,,,0.00,Wunderground v.1.15,2013-05-31 08:40:00,
2013-05-31 04:50:00,67.0,64.3,30.01,WNW,301,0.0,0.0,91,0.00,,,0.00,Wunderground v.1.15,2013-05-31 08:50:00,
2013-05-31 05:00:00,66.8,64.1,30.01,WNW,301,0.0,0.0,91,0.00,,,0.00,Wunderground v.1.15,2013-05-31 09:00:00,
2013-05-31 05:10:00,66.7,64.0,30.01,WNW,301,0.0,0.0,91,0.00,,,0.00,Wunderground v.1.15,2013-05-31 09:10:00,
2013-05-31 05:20:00,67.0,64.3,30.01,WNW,301,0.0,0.0,91,0.00,,,0.00,Wunderground v.1.15,2013-05-31 09:20:00,
2013-05-31 05:30:00,67.3,64.3,30.01,WNW,301,0.0,0.0,90,0.00,,,0.00,Wunderground v.1.15,2013-05-31 09:30:00,
2013-05-31 05:40:00,67.5,64.5,30.01,WNW,301,0.0,0.0,90,0.00,,,0.00,Wunderground v.1.15,2013-05-31 09:40:00,
2013-05-31 05:50:00,67.4,64.4,30.01,WNW,301,0.0,0.0,90,0.00,,,0.00,Wunderground v.1.15,2013-05-31 09:50:00,
2013-05-31 06:00:00,67.9,64.5,30.02,WNW,301,0.0,0.0,89,0.00,,,0.00,Wunderground v.1.15,2013-05-31 10:00:00,
2013-05-31 06:10:00,68.8,65.1,30.02,WNW,301,0.0,0.0,88,0.00,,,0.00,Wunderground v.1.15,2013-05-31 10:10:00,
2013-05-31 06:20:00,69.8,65.4,30.02,NW,323,1.0,1.0,86,0.00,,,0.00,Wunderground v.1.15,2013-05-31 10:20:00,
2013-05-31 06:30:00,70.8,65.7,30.03,NW,322,0.0,1.0,84,0.00,,,0.00,Wunderground v.1.15,2013-05-31 10:30:00,
2013-05-31 06:35:00,71.2,65.8,30.03,NW,322,1.0,1.0,83,0.00,,,0.00,Wunderground v.1.15,2013-05-31 10:35:00,
2013-05-31 06:40:00,71.9,66.1,30.02,NW,322,1.0,1.0,82,0.00,,,0.00,Wunderground v.1.15,2013-05-31 10:40:00,
2013-05-31 06:50:00,72.9,66.4,30.03,NW,322,1.0,1.0,80,0.00,,,0.00,Wunderground v.1.15,2013-05-31 10:50:00,
2013-05-31 06:55:00,73.4,66.9,30.03,NW,322,1.0,1.0,80,0.00,,,0.00,Wunderground v.1.15,2013-05-31 10:55:00,
2013-05-31 07:05:00,73.9,66.6,30.03,NW,320,0.0,0.0,78,0.00,,,0.00,Wunderground v.1.15,2013-05-31 11:05:00,
2013-05-31 07:15:00,75.2,67.1,30.03,NW,316,0.0,1.0,76,0.00,,,0.00,Wunderground v.1.15,2013-05-31 11:15:00,
2013-05-31 07:20:00,75.3,67.6,30.03,NW,316,0.0,0.0,77,0.00,,,0.00,Wunderground v.1.15,2013-05-31 11:20:00,
2013-05-31 07:25:00,76.3,67.8,30.03,NW,316,0.0,1.0,75,0.00,,,0.00,Wunderground v.1.15,2013-05-31 11:25:00,
2013-05-31 07:35:00,77.0,68.1,30.03,NW,321,1.0,1.0,74,0.00,,,0.00,Wunderground v.1.15,2013-05-31 11:35:00,
2013-05-31 07:40:00,77.4,68.5,30.03,NW,321,0.0,0.0,74,0.00,,,0.00,Wunderground v.1.15,2013-05-31 11:40:00,
2013-05-31 07:50:00,78.5,68.3,30.03,NNW,327,1.0,1.0,71,0.00,,,0.00,Wunderground v.1.15,2013-05-31 11:50:00,
2013-05-31 07:55:00,78.8,68.2,30.03,NNW,336,1.0,1.0,70,0.00,,,0.00,Wunderground v.1.15,2013-05-31 11:55:00,
2013-05-31 08:05:00,80.2,69.1,30.03,NNW,336,0.0,2.0,69,0.00,,,0.00,Wunderground v.1.15,2013-05-31 12:05:00,
2013-05-31 08:15:00,80.9,68.9,30.03,NNW,336,1.0,1.0,67,0.00,,,0.00,Wunderground v.1.15,2013-05-31 12:15:00,
2013-05-31 08:20:00,81.2,69.2,30.03,NNW,336,1.0,1.0,67,0.00,,,0.00,Wunderground v.1.15,2013-05-31 12:20:00,
2013-05-31 08:25:00,81.6,69.1,30.03,NNW,336,1.0,1.0,66,0.00,,,0.00,Wunderground v.1.15,2013-05-31 12:25:00,
2013-05-31 08:35:00,82.7,69.7,30.03,NNW,332,1.0,2.0,65,0.00,,,0.00,Wunderground v.1.15,2013-05-31 12:35:00,
2013-05-31 08:45:00,83.5,69.1,30.03,NW,304,1.0,1.0,62,0.00,,,0.00,Wunderground v.1.15,2013-05-31 12:45:00,
2013-05-31 08:50:00,84.3,69.4,30.03,WNW,300,1.0,1.0,61,0.00,,,0.00,Wunderground v.1.15,2013-05-31 12:50:00,
2013-05-31 09:00:00,84.4,69.5,30.03,WNW,297,1.0,1.0,61,0.00,,,0.00,Wunderground v.1.15,2013-05-31 13:00:00,
2013-05-31 09:05:00,84.8,69.4,30.03,WNW,297,1.0,1.0,60,0.00,,,0.00,Wunderground v.1.15,2013-05-31 13:05:00,
2013-05-31 09:15:00,85.6,70.1,30.02,WNW,297,1.0,2.0,60,0.00,,,0.00,Wunderground v.1.15,2013-05-31 13:15:00,
2013-05-31 09:20:00,86.1,70.6,30.02,NNW,340,1.0,1.0,60,0.00,,,0.00,Wunderground v.1.15,2013-05-31 13:20:00,
2013-05-31 09:30:00,87.1,71.0,30.02,NW,313,1.0,1.0,59,0.00,,,0.00,Wunderground v.1.15,2013-05-31 13:30:00,
2013-05-31 09:40:00,87.3,71.2,30.01,NW,321,1.0,2.0,59,0.00,,,0.00,Wunderground v.1.15,2013-05-31 13:40:00,
2013-05-31 09:50:00,87.5,70.9,30.01,West,281,1.0,3.0,58,0.00,,,0.00,Wunderground v.1.15,2013-05-31 13:50:00,
2013-05-31 10:00:00,88.2,71.0,30.01,NW,320,1.0,1.0,57,0.00,,,0.00,Wunderground v.1.15,2013-05-31 14:00:00,
2013-05-31 10:10:00,88.5,70.8,30.00,West,272,2.0,2.0,56,0.00,,,0.00,Wunderground v.1.15,2013-05-31 14:10:00,
2013-05-31 10:20:00,89.2,70.4,30.00,WNW,285,1.0,1.0,54,0.00,,,0.00,Wunderground v.1.15,2013-05-31 14:20:00,
2013-05-31 10:30:00,89.2,70.4,30.00,NNW,327,1.0,1.0,54,0.00,,,0.00,Wunderground v.1.15,2013-05-31 14:30:00,
2013-05-31 10:35:00,89.7,70.3,30.00,WSW,245,1.0,1.0,53,0.00,,,0.00,Wunderground v.1.15,2013-05-31 14:35:00,
2013-05-31 10:45:00,90.4,67.4,30.00,NNW,336,1.0,1.0,47,0.00,,,0.00,Wunderground v.1.15,2013-05-31 14:45:00,
2013-05-31 10:50:00,90.4,67.4,30.00,West,270,2.0,2.0,47,0.00,,,0.00,Wunderground v.1.15,2013-05-31 14:50:00,
2013-05-31 10:55:00,90.6,67.6,30.00,West,277,2.0,4.0,47,0.00,,,0.00,Wunderground v.1.15,2013-05-31 14:55:00,
2013-05-31 11:05:00,90.9,67.3,29.99,West,265,2.0,4.0,46,0.00,,,0.00,Wunderground v.1.15,2013-05-31 15:05:00,
2013-05-31 11:10:00,90.9,67.9,29.99,West,273,2.0,2.0,47,0.00,,,0.00,Wunderground v.1.15,2013-05-31 15:10:00,
2013-05-31 11:20:00,91.6,68.5,29.99,WNW,296,2.0,2.0,47,0.00,,,0.00,Wunderground v.1.15,2013-05-31 15:20:00,
2013-05-31 11:25:00,92.0,68.3,29.99,West,279,2.0,2.0,46,0.00,,,0.00,Wunderground v.1.15,2013-05-31 15:25:00,
2013-05-31 11:35:00,91.1,68.7,29.99,SW,236,1.0,2.0,48,0.00,,,0.00,Wunderground v.1.15,2013-05-31 15:35:00,
2013-05-31 11:45:00,91.8,68.7,29.99,West,275,2.0,3.0,47,0.00,,,0.00,Wunderground v.1.15,2013-05-31 15:45:00,
2013-05-31 11:55:00,91.5,66.5,29.99,NW,309,2.0,2.0,44,0.00,,,0.00,Wunderground v.1.15,2013-05-31 15:55:00,
2013-05-31 12:05:00,91.5,67.2,29.99,WSW,240,3.0,3.0,45,0.00,,,0.00,Wunderground v.1.15,2013-05-31 16:05:00,
2013-05-31 12:15:00,91.5,66.5,29.99,West,276,2.0,3.0,44,0.00,,,0.00,Wunderground v.1.15,2013-05-31 16:15:00,
2013-05-31 12:20:00,91.3,67.6,29.98,SSE,153,3.0,3.0,46,0.00,,,0.00,Wunderground v.1.15,2013-05-31 16:20:00,
2013-05-31 12:30:00,92.4,68.0,29.98,West,268,2.0,2.0,45,0.00,,,0.00,Wunderground v.1.15,2013-05-31 16:30:00,
2013-05-31 12:35:00,92.3,67.2,29.98,West,278,2.0,2.0,44,0.00,,,0.00,Wunderground v.1.15,2013-05-31 16:35:00,
2013-05-31 12:40:00,91.9,66.2,29.98,NW,308,2.0,2.0,43,0.00,,,0.00,Wunderground v.1.15,2013-05-31 16:40:00,
2013-05-31 12:50:00,92.0,67.0,29.98,NW,308,2.0,2.0,44,0.00,,,0.00,Wunderground v.1.15,2013-05-31 16:50:00,
2013-05-31 13:00:00,92.7,66.9,29.97,NW,324,2.0,2.0,43,0.00,,,0.00,Wunderground v.1.15,2013-05-31 17:00:00,
2013-05-31 13:10:00,92.4,66.0,29.97,West,260,2.0,3.0,42,0.00,,,0.00,Wunderground v.1.15,2013-05-31 17:10:00,
2013-05-31 13:20:00,92.3,65.2,29.97,West,268,3.0,3.0,41,0.00,,,0.00,Wunderground v.1.15,2013-05-31 17:20:00,
2013-05-31 13:30:00,92.6,65.5,29.96,WSW,248,2.0,3.0,41,0.00,,,0.00,Wunderground v.1.15,2013-05-31 17:30:00,
2013-05-31 13:40:00,92.6,64.0,29.96,NNW,338,3.0,3.0,39,0.00,,,0.00,Wunderground v.1.15,2013-05-31 17:40:00,
2013-05-31 13:50:00,92.9,65.0,29.96,West,272,2.0,2.0,40,0.00,,,0.00,Wunderground v.1.15,2013-05-31 17:50:00,
2013-05-31 13:55:00,92.7,64.1,29.96,WNW,284,2.0,2.0,39,0.00,,,0.00,Wunderground v.1.15,2013-05-31 17:55:00,
2013-05-31 14:05:00,92.1,65.0,29.96,NW,309,3.0,4.0,41,0.00,,,0.00,Wunderground v.1.15,2013-05-31 18:05:00,
2013-05-31 14:15:00,92.3,63.8,29.95,West,264,3.0,6.0,39,0.00,,,0.00,Wunderground v.1.15,2013-05-31 18:15:00,
2013-05-31 14:20:00,92.1,63.6,29.95,SW,228,3.0,3.0,39,0.00,,,0.00,Wunderground v.1.15,2013-05-31 18:20:00,
2013-05-31 14:30:00,92.7,64.8,29.95,WSW,238,2.0,2.0,40,0.00,,,0.00,Wunderground v.1.15,2013-05-31 18:30:00,
2013-05-31 14:35:00,92.7,64.8,29.95,WNW,293,2.0,2.0,40,0.00,,,0.00,Wunderground v.1.15,2013-05-31 18:35:00,
2013-05-31 14:40:00,92.9,64.3,29.94,NW,309,2.0,5.0,39,0.00,,,0.00,Wunderground v.1.15,2013-05-31 18:40:00,
2013-05-31 14:50:00,92.7,65.6,29.94,West,268,2.0,3.0,41,0.00,,,0.00,Wunderground v.1.15,2013-05-31 18:50:00,
2013-05-31 15:00:00,93.1,65.2,29.94,NW,322,2.0,2.0,40,0.00,,,0.00,Wunderground v.1.15,2013-05-31 19:00:00,
2013-05-31 15:05:00,92.7,64.8,29.94,WNW,286,2.0,5.0,40,0.00,,,0.00,Wunderground v.1.15,2013-05-31 19:05:00,
2013-05-31 15:15:00,92.9,65.0,29.94,NW,323,2.0,2.0,40,0.00,,,0.00,Wunderground v.1.15,2013-05-31 19:15:00,
2013-05-31 15:20:00,93.0,64.4,29.93,WNW,286,2.0,2.0,39,0.00,,,0.00,Wunderground v.1.15,2013-05-31 19:20:00,
2013-05-31 15:30:00,93.3,64.7,29.93,WNW,303,2.0,3.0,39,0.00,,,0.00,Wunderground v.1.15,2013-05-31 19:30:00,
2013-05-31 15:35:00,93.1,65.2,29.93,NW,307,2.0,3.0,40,0.00,,,0.00,Wunderground v.1.15,2013-05-31 19:35:00,
2013-05-31 15:40:00,93.3,65.4,29.93,NW,313,2.0,2.0,40,0.00,,,0.00,Wunderground v.1.15,2013-05-31 19:40:00,
2013-05-31 15:50:00,93.1,65.2,29.93,WNW,295,2.0,3.0,40,0.00,,,0.00,Wunderground v.1.15,2013-05-31 19:50:00,
2013-05-31 16:00:00,92.5,65.4,29.93,WNW,290,2.0,2.0,41,0.00,,,0.00,Wunderground v.1.15,2013-05-31 20:00:00,
2013-05-31 16:10:00,93.0,65.8,29.92,WNW,294,2.0,5.0,41,0.00,,,0.00,Wunderground v.1.15,2013-05-31 20:10:00,
2013-05-31 16:20:00,92.8,64.2,29.92,West,273,3.0,3.0,39,0.00,,,0.00,Wunderground v.1.15,2013-05-31 20:20:00,
2013-05-31 16:30:00,93.0,64.4,29.91,West,269,2.0,2.0,39,0.00,,,0.00,Wunderground v.1.15,2013-05-31 20:30:00,
2013-05-31 16:35:00,93.2,64.6,29.91,West,279,2.0,2.0,39,0.00,,,0.00,Wunderground v.1.15,2013-05-31 20:35:00,
2013-05-31 16:45:00,93.5,64.1,29.90,WNW,297,2.0,3.0,38,0.00,,,0.00,Wunderground v.1.15,2013-05-31 20:45:00,
2013-05-31 16:55:00,93.1,64.5,29.90,WSW,252,2.0,3.0,39,0.00,,,0.00,Wunderground v.1.15,2013-05-31 20:55:00,
2013-05-31 17:05:00,92.9,64.3,29.89,SW,228,2.0,3.0,39,0.00,,,0.00,Wunderground v.1.15,2013-05-31 21:05:00,
2013-05-31 17:10:00,92.9,64.3,29.89,West,266,2.0,4.0,39,0.00,,,0.00,Wunderground v.1.15,2013-05-31 21:10:00,
2013-05-31 17:20:00,93.3,64.7,29.89,NNW,329,2.0,2.0,39,0.00,,,0.00,Wunderground v.1.15,2013-05-31 21:20:00,
2013-05-31 17:30:00,93.2,63.8,29.89,West,277,2.0,5.0,38,0.00,,,0.00,Wunderground v.1.15,2013-05-31 21:30:00,
2013-05-31 17:40:00,92.8,64.2,29.88,West,281,2.0,2.0,39,0.00,,,0.00,Wunderground v.1.15,2013-05-31 21:40:00,
2013-05-31 17:50:00,92.8,64.9,29.88,West,279,2.0,2.0,40,0.00,,,0.00,Wunderground v.1.15,2013-05-31 21:50:00,
2013-05-31 18:00:00,92.3,65.2,29.88,WNW,282,2.0,2.0,41,0.00,,,0.00,Wunderground v.1.15,2013-05-31 22:00:00,
2013-05-31 18:10:00,91.7,66.0,29.88,West,281,1.0,2.0,43,0.00,,,0.00,Wunderground v.1.15,2013-05-31 22:10:00,
2013-05-31 18:20:00,91.3,67.6,29.87,SSW,202,1.0,1.0,46,0.00,,,0.00,Wunderground v.1.15,2013-05-31 22:20:00,
2013-05-31 18:30:00,91.2,66.9,29.87,WNW,290,1.0,3.0,45,0.00,,,0.00,Wunderground v.1.15,2013-05-31 22:30:00,
2013-05-31 18:35:00,91.0,67.3,29.87,NW,304,2.0,3.0,46,0.00,,,0.00,Wunderground v.1.15,2013-05-31 22:35:00,
2013-05-31 18:40:00,90.6,67.6,29.87,NNW,335,1.0,2.0,47,0.00,,,0.00,Wunderground v.1.15,2013-05-31 22:40:00,
2013-05-31 18:50:00,90.0,67.7,29.87,West,263,1.0,1.0,48,0.00,,,0.00,Wunderground v.1.15,2013-05-31 22:50:00,
2013-05-31 18:55:00,89.7,67.4,29.87,SW,223,1.0,2.0,48,0.00,,,0.00,Wunderground v.1.15,2013-05-31 22:55:00,
2013-05-31 19:05:00,89.0,67.9,29.87,West,265,2.0,2.0,50,0.00,,,0.00,Wunderground v.1.15,2013-05-31 23:05:00,
2013-05-31 19:15:00,88.5,68.1,29.87,WNW,285,2.0,2.0,51,0.00,,,0.00,Wunderground v.1.15,2013-05-31 23:15:00,
2013-05-31 19:20:00,88.2,68.4,29.87,West,266,1.0,3.0,52,0.00,,,0.00,Wunderground v.1.15,2013-05-31 23:20:00,
2013-05-31 19:30:00,87.6,68.4,29.87,NW,315,1.0,2.0,53,0.00,,,0.00,Wunderground v.1.15,2013-05-31 23:30:00,
2013-05-31 19:40:00,87.0,67.8,29.88,SW,225,1.0,1.0,53,0.00,,,0.00,Wunderground v.1.15,2013-05-31 23:40:00,
2013-05-31 19:50:00,86.4,67.8,29.88,SW,233,1.0,1.0,54,0.00,,,0.00,Wunderground v.1.15,2013-05-31 23:50:00,
2013-05-31 19:55:00,86.2,67.6,29.88,WSW,247,1.0,1.0,54,0.00,,,0.00,Wunderground v.1.15,2013-05-31 23:55:00,
2013-05-31 20:05:00,85.6,67.6,29.88,WNW,292,1.0,2.0,55,0.00,,,0.00,Wunderground v.1.15,2013-06-01 00:05:00,
2013-05-31 20:15:00,85.2,67.2,29.88,WNW,286,2.0,2.0,55,0.00,,,0.00,Wunderground v.1.15,2013-06-01 00:15:00,
2013-05-31 20:25:00,84.9,66.9,29.89,WNW,290,2.0,2.0,55,0.00,,,0.00,Wunderground v.1.15,2013-06-01 00:25:00,
2013-05-31 20:35:00,84.4,67.0,29.89,SSW,202,1.0,1.0,56,0.00,,,0.00,Wunderground v.1.15,2013-06-01 00:35:00,
2013-05-31 20:40:00,84.1,67.2,29.89,West,266,0.0,0.0,57,0.00,,,0.00,Wunderground v.1.15,2013-06-01 00:40:00,
2013-05-31 21:00:00,83.0,67.2,29.89,NNW,327,0.0,0.0,59,0.00,,,0.00,Wunderground v.1.15,2013-06-01 01:00:00,
2013-05-31 21:10:00,82.6,67.3,29.90,NNW,327,0.0,0.0,60,0.00,,,0.00,Wunderground v.1.15,2013-06-01 01:10:00,
2013-05-31 21:20:00,82.1,67.3,29.90,West,278,1.0,1.0,61,0.00,,,0.00,Wunderground v.1.15,2013-06-01 01:20:00,
2013-05-31 21:25:00,81.9,67.6,29.90,West,278,0.0,1.0,62,0.00,,,0.00,Wunderground v.1.15,2013-06-01 01:25:00,
2013-05-31 21:35:00,81.5,67.7,29.91,WSW,253,0.0,1.0,63,0.00,,,0.00,Wunderground v.1.15,2013-06-01 01:35:00,
2013-05-31 21:40:00,81.3,67.5,29.91,WSW,253,0.0,0.0,63,0.00,,,0.00,Wunderground v.1.15,2013-06-01 01:40:00,
2013-05-31 21:50:00,80.7,67.4,29.91,WSW,254,0.0,0.0,64,0.00,,,0.00,Wunderground v.1.15,2013-06-01 01:50:00,
2013-05-31 22:00:00,80.2,67.4,29.91,WSW,254,0.0,0.0,65,0.00,,,0.00,Wunderground v.1.15,2013-06-01 02:00:00,
2013-05-31 22:05:00,80.0,67.6,29.91,WSW,254,0.0,0.0,66,0.00,,,0.00,Wunderground v.1.15,2013-06-01 02:05:00,
2013-05-31 22:10:00,79.8,67.4,29.91,WSW,254,0.0,0.0,66,0.00,,,0.00,Wunderground v.1.15,2013-06-01 02:10:00,
2013-05-31 22:20:00,79.5,67.6,29.91,WSW,254,0.0,0.0,67,0.00,,,0.00,Wunderground v.1.15,2013-06-01 02:20:00,
2013-05-31 22:30:00,79.1,67.2,29.91,West,259,0.0,0.0,67,0.00,,,0.00,Wunderground v.1.15,2013-06-01 02:30:00,
2013-05-31 22:35:00,78.9,67.0,29.91,WSW,244,0.0,0.0,67,0.00,,,0.00,Wunderground v.1.15,2013-06-01 02:35:00,
2013-05-31 22:40:00,78.9,67.0,29.91,NW,311,0.0,1.0,67,0.00,,,0.00,Wunderground v.1.15,2013-06-01 02:40:00,
2013-05-31 22:45:00,78.8,66.9,29.91,NW,311,0.0,1.0,67,0.00,,,0.00,Wunderground v.1.15,2013-06-01 02:45:00,
2013-05-31 22:50:00,78.7,66.8,29.91,NW,311,0.0,0.0,67,0.00,,,0.00,Wunderground v.1.15,2013-06-01 02:50:00,
2013-05-31 23:00:00,78.5,66.6,29.91,NW,311,0.0,0.0,67,0.00,,,0.00,Wunderground v.1.15,2013-06-01 03:00:00,
2013-05-31 23:05:00,78.4,66.5,29.91,NW,311,0.0,0.0,67,0.00,,,0.00,Wunderground v.1.15,2013-06-01 03:05:00,
2013-05-31 23:15:00,78.1,66.2,29.91,NW,311,0.0,0.0,67,0.00,,,0.00,Wunderground v.1.15,2013-06-01 03:15:00,
2013-05-31 23:20:00,77.9,66.1,29.91,NW,311,0.0,0.0,67,0.00,,,0.00,Wunderground v.1.15,2013-06-01 03:20:00,
2013-05-31 23:30:00,77.6,65.8,29.91,NW,311,0.0,0.0,67,0.00,,,0.00,Wunderground v.1.15,2013-06-01 03:30:00,
2013-05-31 23:35:00,77.4,66.0,29.91,NW,311,0.0,0.0,68,0.00,,,0.00,Wunderground v.1.15,2013-06-01 03:35:00,
2013-05-31 23:45:00,76.9,65.5,29.91,NW,311,0.0,0.0,68,0.00,,,0.00,Wunderground v.1.15,2013-06-01 03:45:00,
2013-05-31 23:55:00,76.5,65.1,29.91,NW,311,0.0,0.0,68,0.00,,,0.00,Wunderground v.1.15,2013-06-01 03:55:00,